createdAt,value
2022-08-29T00:00:59.209Z,97145.53
2022-08-29T00:03:26.069Z,97151.59
2022-08-29T00:05:58.612Z,97143.28
2022-08-29T00:08:25.733Z,97150.81
2022-08-29T00:10:54.271Z,97150.19
2022-08-29T00:13:21.337Z,97145.69
2022-08-29T00:15:48.649Z,97149.56
2022-08-29T00:18:16.515Z,97145.88
2022-08-29T00:20:44.843Z,97146.91
2022-08-29T00:23:12.193Z,97130.13
2022-08-29T00:25:38.985Z,97137.69
2022-08-29T00:28:05.610Z,97135.63
2022-08-29T00:30:33.964Z,97139.34
2022-08-29T00:33:00.600Z,97143.00
2022-08-29T00:35:31.276Z,97140.97
2022-08-29T00:37:59.019Z,97126.06
2022-08-29T00:40:32.647Z,97139.13
2022-08-29T00:42:59.304Z,97131.38
2022-08-29T00:45:26.129Z,97136.53
2022-08-29T00:47:57.834Z,97146.50
2022-08-29T00:50:26.622Z,97139.63
2022-08-29T00:52:55.286Z,97139.84
2022-08-29T00:55:24.827Z,97136.97
2022-08-29T00:57:59.037Z,97142.69
2022-08-29T01:00:26.846Z,97142.13
2022-08-29T01:02:55.215Z,97138.66
2022-08-29T01:05:24.078Z,97140.91
2022-08-29T01:07:52.022Z,97139.25
2022-08-29T01:10:37.736Z,97141.31
2022-08-29T01:13:09.299Z,97137.03
2022-08-29T01:15:37.228Z,97132.94
2022-08-29T01:18:06.299Z,97130.06
2022-08-29T01:20:57.777Z,97133.75
2022-08-29T01:23:59.022Z,97137.03
2022-08-29T01:26:30.462Z,97143.56
2022-08-29T01:28:57.979Z,97152.09
2022-08-29T01:31:38.616Z,97152.09
2022-08-29T01:34:23.675Z,97154.97
2022-08-29T01:36:51.744Z,97155.78
2022-08-29T01:39:20.743Z,97162.31
2022-08-29T01:41:47.407Z,97151.91
2022-08-29T01:44:19.467Z,97161.88
2022-08-29T01:46:48.960Z,97158.44
2022-08-29T01:49:17.556Z,97148.66
2022-08-29T01:51:45.111Z,97148.84
2022-08-29T01:54:12.885Z,97150.09
2022-08-29T01:56:46.626Z,97150.47
2022-08-29T01:59:15.849Z,97146.00
2022-08-29T02:01:50.318Z,97144.16
2022-08-29T02:04:17.908Z,97142.72
2022-08-29T02:06:45.757Z,97143.75
2022-08-29T02:09:12.448Z,97146.59
2022-08-29T02:11:40.020Z,97153.94
2022-08-29T02:14:07.863Z,97148.84
2022-08-29T02:16:40.298Z,97148.44
2022-08-29T02:19:07.258Z,97150.84
2022-08-29T02:21:33.909Z,97146.00
2022-08-29T02:24:21.273Z,97144.75
2022-08-29T02:26:49.242Z,97146.19
2022-08-29T02:29:15.896Z,97149.03
2022-08-29T02:31:43.645Z,97144.34
2022-08-29T02:34:11.434Z,97135.97
2022-08-29T02:36:38.755Z,97138.56
2022-08-29T02:39:08.181Z,97135.31
2022-08-29T02:41:34.881Z,97132.28
2022-08-29T02:44:01.894Z,97134.31
2022-08-29T02:46:28.579Z,97132.69
2022-08-29T02:49:01.331Z,97138.19
2022-08-29T02:51:33.763Z,97139.81
2022-08-29T02:54:01.184Z,97141.84
2022-08-29T02:56:28.586Z,97139.59
2022-08-29T02:58:56.416Z,97141.63
2022-08-29T03:01:24.407Z,97149.78
2022-08-29T03:03:51.440Z,97152.59
2022-08-29T03:06:19.998Z,97153.44
2022-08-29T03:08:46.926Z,97155.88
2022-08-29T03:11:14.079Z,97156.09
2022-08-29T03:13:44.211Z,97148.34
2022-08-29T03:16:11.626Z,97159.50
2022-08-29T03:18:38.317Z,97155.66
2022-08-29T03:21:04.952Z,97158.72
2022-08-29T03:23:32.698Z,97159.31
2022-08-29T03:25:59.516Z,97160.88
2022-08-29T03:28:26.106Z,97165.34
2022-08-29T03:30:52.753Z,97164.84
2022-08-29T03:33:19.451Z,97161.81
2022-08-29T03:35:46.041Z,97161.59
2022-08-29T03:38:12.753Z,97153.06
2022-08-29T03:40:41.292Z,97151.69
2022-08-29T03:43:09.726Z,97157.53
2022-08-29T03:45:36.531Z,97168.13
2022-08-29T03:48:03.771Z,97168.31
2022-08-29T03:50:30.464Z,97169.13
2022-08-29T03:52:57.427Z,97164.06
2022-08-29T03:55:24.086Z,97168.75
2022-08-29T03:57:51.053Z,97168.91
2022-08-29T04:00:19.248Z,97177.66
2022-08-29T04:02:47.802Z,97176.22
2022-08-29T04:05:16.811Z,97177.81
2022-08-29T04:07:45.746Z,97178.38
2022-08-29T04:10:16.885Z,97181.47
2022-08-29T04:12:43.855Z,97183.31
2022-08-29T04:15:11.415Z,97181.88
2022-08-29T04:17:45.572Z,97181.59
2022-08-29T04:20:24.778Z,97185.25
2022-08-29T04:22:53.198Z,97182.59
2022-08-29T04:25:19.913Z,97184.06
2022-08-29T04:27:46.562Z,97176.50
2022-08-29T04:30:16.694Z,97186.69
2022-08-29T04:32:43.454Z,97190.31
2022-08-29T04:35:12.724Z,97184.47
2022-08-29T04:37:40.970Z,97183.84
2022-08-29T04:40:15.446Z,97182.38
2022-08-29T04:42:47.202Z,97185.25
2022-08-29T04:45:15.049Z,97191.41
2022-08-29T04:47:42.979Z,97190.97
2022-08-29T04:50:14.523Z,97201.97
2022-08-29T04:52:42.729Z,97204.63
2022-08-29T04:55:10.314Z,97200.56
2022-08-29T04:57:38.326Z,97202.84
2022-08-29T05:00:08.737Z,97204.72
2022-08-29T05:02:35.441Z,97207.19
2022-08-29T05:05:02.525Z,97211.91
2022-08-29T05:07:29.189Z,97205.75
2022-08-29T05:09:59.036Z,97205.34
2022-08-29T05:12:26.657Z,97217.00
2022-08-29T05:14:53.731Z,97218.44
2022-08-29T05:17:20.850Z,97217.63
2022-08-29T05:19:48.006Z,97216.38
2022-08-29T05:22:15.484Z,97215.75
2022-08-29T05:24:42.804Z,97217.03
2022-08-29T05:27:15.116Z,97222.53
2022-08-29T05:29:43.307Z,97215.34
2022-08-29T05:32:11.714Z,97219.53
2022-08-29T05:34:39.376Z,97218.78
2022-08-29T05:37:09.021Z,97223.44
2022-08-29T05:39:37.301Z,97223.91
2022-08-29T05:42:05.023Z,97221.91
2022-08-29T05:44:35.143Z,97217.97
2022-08-29T05:47:07.163Z,97210.19
2022-08-29T05:49:35.336Z,97212.94
2022-08-29T05:52:01.933Z,97214.88
2022-08-29T05:54:29.976Z,97213.25
2022-08-29T05:56:57.183Z,97216.53
2022-08-29T05:59:23.738Z,97215.75
2022-08-29T06:01:50.340Z,97215.91
2022-08-29T06:04:17.117Z,97215.22
2022-08-29T06:06:43.789Z,97207.59
2022-08-29T06:09:11.761Z,97218.44
2022-08-29T06:11:38.732Z,97215.66
2022-08-29T06:14:06.117Z,97218.38
2022-08-29T06:16:33.408Z,97220.09
2022-08-29T06:19:00.050Z,97214.28
2022-08-29T06:21:26.726Z,97222.25
2022-08-29T06:23:53.339Z,97218.03
2022-08-29T06:26:20.159Z,97216.75
2022-08-29T06:28:47.175Z,97209.25
2022-08-29T06:31:22.973Z,97224.09
2022-08-29T06:33:54.639Z,97219.09
2022-08-29T06:36:21.549Z,97217.97
2022-08-29T06:38:48.321Z,97212.00
2022-08-29T06:41:17.341Z,97219.66
2022-08-29T06:43:44.446Z,97213.97
2022-08-29T06:46:26.263Z,97213.84
2022-08-29T06:48:53.980Z,97216.69
2022-08-29T06:51:21.180Z,97216.63
2022-08-29T06:53:47.820Z,97220.72
2022-08-29T06:56:15.062Z,97216.25
2022-08-29T06:58:42.572Z,97223.25
2022-08-29T07:01:12.376Z,97218.53
2022-08-29T07:03:41.115Z,97220.53
2022-08-29T07:06:08.838Z,97220.09
2022-08-29T07:08:39.772Z,97223.53
2022-08-29T07:11:09.295Z,97217.88
2022-08-29T07:13:35.877Z,97226.06
2022-08-29T07:16:03.270Z,97217.84
2022-08-29T07:18:29.862Z,97223.22
2022-08-29T07:20:56.417Z,97215.91
2022-08-29T07:23:23.029Z,97214.63
2022-08-29T07:25:49.608Z,97214.72
2022-08-29T07:28:16.361Z,97213.06
2022-08-29T07:30:43.239Z,97219.88
2022-08-29T07:33:09.863Z,97214.00
2022-08-29T07:35:36.453Z,97216.09
2022-08-29T07:38:03.241Z,97221.69
2022-08-29T07:40:30.427Z,97214.81
2022-08-29T07:42:57.117Z,97224.59
2022-08-29T07:45:23.724Z,97226.38
2022-08-29T07:47:50.396Z,97220.34
2022-08-29T07:50:17.185Z,97221.69
2022-08-29T07:52:43.936Z,97208.75
2022-08-29T07:55:11.206Z,97215.16
2022-08-29T07:57:39.835Z,97211.44
2022-08-29T08:00:12.014Z,97204.69
2022-08-29T08:02:38.795Z,97225.47
2022-08-29T08:05:07.203Z,97221.38
2022-08-29T08:07:35.294Z,97219.25
2022-08-29T08:10:02.964Z,97226.50
2022-08-29T08:12:29.669Z,97218.06
2022-08-29T08:14:57.267Z,97217.91
2022-08-29T08:17:24.321Z,97219.56
2022-08-29T08:19:50.933Z,97217.06
2022-08-29T08:22:17.533Z,97228.09
2022-08-29T08:24:45.052Z,97233.13
2022-08-29T08:27:11.957Z,97235.09
2022-08-29T08:29:38.634Z,97228.31
2022-08-29T08:32:05.448Z,97230.50
2022-08-29T08:34:35.820Z,97234.75
2022-08-29T08:37:07.481Z,97223.22
2022-08-29T08:39:34.732Z,97236.28
2022-08-29T08:42:14.377Z,97236.34
2022-08-29T08:44:40.948Z,97236.19
2022-08-29T08:47:12.510Z,97235.91
2022-08-29T08:49:52.394Z,97221.44
2022-08-29T08:52:33.442Z,97233.31
2022-08-29T08:55:04.966Z,97229.66
2022-08-29T08:57:41.532Z,97227.78
2022-08-29T09:00:11.704Z,97224.03
2022-08-29T09:03:30.294Z,97231.69
2022-08-29T09:06:14.237Z,97223.34
2022-08-29T09:08:56.532Z,97228.28
2022-08-29T09:11:28.179Z,97223.28
2022-08-29T09:14:14.592Z,97233.25
2022-08-29T09:16:49.424Z,97230.66
2022-08-29T09:19:17.615Z,97225.22
2022-08-29T09:21:48.793Z,97223.44
2022-08-29T09:24:36.139Z,97232.03
2022-08-29T09:27:02.959Z,97224.09
2022-08-29T09:29:30.899Z,97227.03
2022-08-29T09:32:12.510Z,97227.03
2022-08-29T09:37:35.286Z,97225.66
2022-08-29T09:40:11.168Z,97224.72
2022-08-29T09:42:41.523Z,97220.75
2022-08-29T09:45:18.695Z,97210.69
2022-08-29T09:47:45.692Z,97211.31
2022-08-29T09:50:25.637Z,97206.28
2022-08-29T09:52:54.697Z,97202.78
2022-08-29T09:55:29.985Z,97204.91
2022-08-29T09:58:01.447Z,97201.34
2022-08-29T10:00:35.184Z,97206.28
2022-08-29T10:03:06.268Z,97213.28
2022-08-29T10:05:46.016Z,97211.09
2022-08-29T10:08:37.045Z,97216.06
2022-08-29T10:11:25.520Z,97216.03
2022-08-29T10:14:06.465Z,97216.03
2022-08-29T10:16:51.168Z,97220.28
2022-08-29T10:19:34.159Z,97213.81
2022-08-29T10:22:28.510Z,97214.13
2022-08-29T10:25:25.578Z,97215.00
2022-08-29T10:28:07.263Z,97216.56
2022-08-29T10:30:41.100Z,97210.59
2022-08-29T10:33:32.681Z,97219.84
2022-08-29T10:36:25.346Z,97211.75
2022-08-29T10:39:02.982Z,97209.44
2022-08-29T10:41:56.789Z,97205.81
2022-08-29T10:44:29.687Z,97215.03
2022-08-29T10:47:12.156Z,97209.63
2022-08-29T10:50:10.123Z,97204.75
2022-08-29T10:52:57.858Z,97206.66
2022-08-29T10:55:42.425Z,97205.69
2022-08-29T10:58:13.469Z,97200.78
2022-08-29T11:00:39.977Z,97198.31
2022-08-29T11:03:12.383Z,97199.75
2022-08-29T11:05:44.335Z,97204.09
2022-08-29T11:08:38.531Z,97190.84
2022-08-29T11:11:05.290Z,97193.53
2022-08-29T11:13:39.754Z,97196.09
2022-08-29T11:16:18.855Z,97196.94
2022-08-29T11:18:54.895Z,97190.34
2022-08-29T11:21:29.326Z,97190.25
2022-08-29T11:23:58.489Z,97191.53
2022-08-29T11:26:44.242Z,97189.53
2022-08-29T11:29:28.863Z,97186.03
2022-08-29T11:32:12.064Z,97184.06
2022-08-29T11:34:55.422Z,97188.53
2022-08-29T11:37:34.159Z,97173.53
2022-08-29T11:40:12.273Z,97185.34
2022-08-29T11:42:50.152Z,97181.88
2022-08-29T11:45:27.201Z,97192.25
2022-08-29T11:48:18.350Z,97193.66
2022-08-29T11:50:45.594Z,97181.84
2022-08-29T11:53:21.534Z,97191.97
2022-08-29T11:56:14.377Z,97187.59
2022-08-29T11:58:48.134Z,97181.28
2022-08-29T12:01:37.053Z,97175.00
2022-08-29T12:04:06.255Z,97181.88
2022-08-29T12:06:37.133Z,97177.72
2022-08-29T12:09:35.322Z,97165.00
2022-08-29T12:12:04.626Z,97164.09
2022-08-29T12:14:37.516Z,97155.41
2022-08-29T12:17:08.139Z,97147.22
2022-08-29T12:19:53.452Z,97151.06
2022-08-29T12:22:57.795Z,97149.59
2022-08-29T12:25:27.426Z,97144.28
2022-08-29T12:28:02.413Z,97144.50
2022-08-29T12:30:35.060Z,97150.78
2022-08-29T12:33:19.227Z,97152.44
2022-08-29T12:36:07.534Z,97148.50
2022-08-29T12:38:44.721Z,97148.50
2022-08-29T12:41:50.286Z,97147.97
2022-08-29T12:44:29.362Z,97144.88
2022-08-29T12:47:03.392Z,97139.88
2022-08-29T12:49:35.894Z,97136.63
2022-08-29T12:52:06.552Z,97136.91
2022-08-29T12:54:36.965Z,97129.84
2022-08-29T12:57:06.475Z,97136.63
2022-08-29T12:59:35.625Z,97140.28
2022-08-29T13:02:02.554Z,97129.94
2022-08-29T13:04:33.874Z,97131.47
2022-08-29T13:07:08.876Z,97133.19
2022-08-29T13:09:40.184Z,97128.13
2022-08-29T13:12:31.045Z,97127.75
2022-08-29T13:15:00.590Z,97116.56
2022-08-29T13:17:35.541Z,97122.47
2022-08-29T13:20:42.915Z,97111.75
2022-08-29T13:23:12.489Z,97111.75
2022-08-29T13:25:49.891Z,97110.44
2022-08-29T13:28:23.626Z,97109.59
2022-08-29T13:31:11.795Z,97107.22
2022-08-29T13:33:41.361Z,97106.66
2022-08-29T13:36:29.756Z,97100.63
2022-08-29T13:39:25.438Z,97100.66
2022-08-29T13:41:57.859Z,97096.59
2022-08-29T13:44:32.057Z,97099.19
2022-08-29T13:47:01.401Z,97098.88
2022-08-29T13:49:34.024Z,97100.88
2022-08-29T13:52:01.473Z,97098.88
2022-08-29T13:54:33.213Z,97094.78
2022-08-29T13:57:04.453Z,97099.38
2022-08-29T13:59:36.779Z,97094.53
2022-08-29T14:02:09.364Z,97094.78
2022-08-29T14:04:39.974Z,97090.25
2022-08-29T14:07:09.704Z,97093.91
2022-08-29T14:09:39.383Z,97091.41
2022-08-29T14:12:06.885Z,97079.56
2022-08-29T14:14:33.571Z,97077.09
2022-08-29T14:17:00.776Z,97075.75
2022-08-29T14:19:29.479Z,97074.81
2022-08-29T14:22:00.495Z,97077.84
2022-08-29T14:24:29.028Z,97068.03
2022-08-29T14:27:01.383Z,97066.94
2022-08-29T14:29:30.870Z,97067.66
2022-08-29T14:31:58.740Z,97059.22
2022-08-29T14:34:26.023Z,97069.81
2022-08-29T14:36:57.566Z,97062.53
2022-08-29T14:39:26.437Z,97064.25
2022-08-29T14:41:54.090Z,97061.88
2022-08-29T14:44:22.300Z,97058.59
2022-08-29T14:46:50.240Z,97062.25
2022-08-29T14:49:17.645Z,97059.03
2022-08-29T14:51:44.605Z,97058.75
2022-08-29T14:54:12.182Z,97054.28
2022-08-29T14:56:49.069Z,97059.16
2022-08-29T14:59:17.692Z,97061.03
2022-08-29T15:01:44.411Z,97051.31
2022-08-29T15:04:11.324Z,97054.38
2022-08-29T15:06:41.090Z,97043.50
2022-08-29T15:09:07.924Z,97049.59
2022-08-29T15:11:34.550Z,97047.84
2022-08-29T15:14:04.521Z,97037.53
2022-08-29T15:16:32.057Z,97042.94
2022-08-29T15:21:45.932Z,97048.47
2022-08-29T15:24:12.566Z,97044.47
2022-08-29T15:26:39.461Z,97039.63
2022-08-29T15:29:06.115Z,97037.97
2022-08-29T15:31:33.033Z,97031.19
2022-08-29T15:34:00.640Z,97022.63
2022-08-29T15:36:28.539Z,97032.03
2022-08-29T15:38:55.231Z,97032.75
2022-08-29T15:41:21.873Z,97030.78
2022-08-29T15:43:48.468Z,97017.75
2022-08-29T15:46:15.223Z,97027.25
2022-08-29T15:48:41.909Z,97023.25
2022-08-29T15:51:08.604Z,97034.56
2022-08-29T15:53:35.221Z,97027.34
2022-08-29T15:56:01.936Z,97016.53
2022-08-29T15:58:28.522Z,97026.81
2022-08-29T16:00:55.198Z,97025.97
2022-08-29T16:03:22.151Z,97023.59
2022-08-29T16:05:48.748Z,97029.75
2022-08-29T16:08:17.474Z,97021.41
2022-08-29T16:10:44.703Z,97024.94
2022-08-29T16:13:11.716Z,97012.81
2022-08-29T16:15:38.866Z,97024.19
2022-08-29T16:18:06.782Z,97017.47
2022-08-29T16:20:34.808Z,97026.88
2022-08-29T16:23:02.282Z,97029.56
2022-08-29T16:25:31.245Z,97022.03
2022-08-29T16:28:00.262Z,97014.25
2022-08-29T16:30:27.414Z,97025.00
2022-08-29T16:32:55.291Z,97018.03
2022-08-29T16:35:22.345Z,97023.13
2022-08-29T16:38:02.726Z,97019.09
2022-08-29T16:40:31.527Z,97016.97
2022-08-29T16:42:58.250Z,97012.97
2022-08-29T16:45:24.984Z,97021.31
2022-08-29T16:47:56.743Z,97014.34
2022-08-29T16:50:25.035Z,97018.91
2022-08-29T16:52:51.862Z,97016.47
2022-08-29T16:55:18.810Z,97015.66
2022-08-29T16:58:05.361Z,97006.75
2022-08-29T17:00:32.138Z,97014.00
2022-08-29T17:02:58.891Z,97012.63
2022-08-29T17:05:25.954Z,97019.31
2022-08-29T17:07:52.519Z,97019.25
2022-08-29T17:10:19.169Z,97021.38
2022-08-29T17:12:45.692Z,97015.44
2022-08-29T17:15:12.606Z,97018.63
2022-08-29T17:17:39.215Z,97016.94
2022-08-29T17:20:06.750Z,97018.97
2022-08-29T17:22:34.329Z,97023.47
2022-08-29T17:25:02.009Z,97024.22
2022-08-29T17:27:31.043Z,97023.56
2022-08-29T17:29:57.605Z,97027.22
2022-08-29T17:32:24.194Z,97023.41
2022-08-29T17:34:50.913Z,97027.63
2022-08-29T17:37:17.568Z,97026.41
2022-08-29T17:39:44.321Z,97026.91
2022-08-29T17:42:11.594Z,97016.63
2022-08-29T17:44:38.388Z,97033.91
2022-08-29T17:47:05.150Z,97027.25
2022-08-29T17:49:32.455Z,97025.72
2022-08-29T17:51:59.130Z,97029.34
2022-08-29T17:54:26.593Z,97035.69
2022-08-29T17:56:58.472Z,97030.94
2022-08-29T17:59:27.417Z,97038.41
2022-08-29T18:01:55.385Z,97039.91
2022-08-29T18:04:23.495Z,97043.09
2022-08-29T18:06:51.901Z,97048.28
2022-08-29T18:09:19.543Z,97047.59
2022-08-29T18:11:50.045Z,97045.66
2022-08-29T18:14:18.740Z,97051.00
2022-08-29T18:16:45.580Z,97057.50
2022-08-29T18:19:13.579Z,97053.59
2022-08-29T18:21:44.171Z,97049.88
2022-08-29T18:24:13.648Z,97060.19
2022-08-29T18:26:44.289Z,97065.63
2022-08-29T18:29:10.980Z,97068.63
2022-08-29T18:31:37.633Z,97064.22
2022-08-29T18:34:04.344Z,97066.25
2022-08-29T18:36:32.592Z,97073.13
2022-08-29T18:38:59.850Z,97081.47
2022-08-29T18:41:26.882Z,97079.75
2022-08-29T18:43:53.694Z,97084.09
2022-08-29T18:46:20.547Z,97094.47
2022-08-29T18:48:47.261Z,97095.75
2022-08-29T18:51:15.139Z,97086.94
2022-08-29T18:53:42.860Z,97090.88
2022-08-29T18:56:10.121Z,97096.03
2022-08-29T18:58:38.068Z,97093.75
2022-08-29T19:01:26.926Z,97101.66
2022-08-29T19:03:56.668Z,97099.81
2022-08-29T19:06:26.026Z,97103.53
2022-08-29T19:08:54.425Z,97099.38
2022-08-29T19:11:21.121Z,97101.09
2022-08-29T19:13:50.301Z,97095.31
2022-08-29T19:16:20.421Z,97104.38
2022-08-29T19:18:47.218Z,97105.66
2022-08-29T19:21:14.051Z,97123.31
2022-08-29T19:23:47.244Z,97119.81
2022-08-29T19:26:31.985Z,97119.13
2022-08-29T19:29:01.350Z,97119.59
2022-08-29T19:31:29.325Z,97123.16
2022-08-29T19:33:57.278Z,97121.16
2022-08-29T19:36:24.940Z,97129.88
2022-08-29T19:38:51.742Z,97126.63
2022-08-29T19:41:18.611Z,97126.06
2022-08-29T19:43:45.522Z,97122.09
2022-08-29T19:46:16.706Z,97127.22
2022-08-29T19:48:44.886Z,97124.59
2022-08-29T19:51:17.898Z,97135.72
2022-08-29T19:53:45.358Z,97133.44
2022-08-29T19:56:12.469Z,97130.75
2022-08-29T19:58:39.384Z,97136.50
2022-08-29T20:01:07.997Z,97135.66
2022-08-29T20:03:38.042Z,97136.25
2022-08-29T20:06:06.977Z,97143.38
2022-08-29T20:08:39.955Z,97147.13
2022-08-29T20:11:06.868Z,97153.72
2022-08-29T20:13:35.817Z,97139.34
2022-08-29T20:16:12.234Z,97144.47
2022-08-29T20:18:40.791Z,97142.28
2022-08-29T20:21:07.736Z,97152.25
2022-08-29T20:23:34.388Z,97154.03
2022-08-29T20:26:01.732Z,97152.19
2022-08-29T20:28:30.538Z,97153.47
2022-08-29T20:30:57.680Z,97157.38
2022-08-29T20:33:25.556Z,97155.53
2022-08-29T20:36:11.113Z,97158.84
2022-08-29T20:38:37.766Z,97161.16
2022-08-29T20:41:04.574Z,97164.91
2022-08-29T20:43:31.171Z,97163.97
2022-08-29T20:45:59.947Z,97164.78
2022-08-29T20:48:31.321Z,97168.75
2022-08-29T20:51:00.442Z,97165.28
2022-08-29T20:53:31.661Z,97161.78
2022-08-29T20:55:59.112Z,97174.16
2022-08-29T20:58:25.979Z,97176.13
2022-08-29T21:00:56.390Z,97172.63
2022-08-29T21:03:41.414Z,97170.38
2022-08-29T21:06:08.265Z,97182.19
2022-08-29T21:08:36.393Z,97179.06
2022-08-29T21:11:05.301Z,97184.44
2022-08-29T21:13:32.082Z,97187.16
2022-08-29T21:15:58.971Z,97176.72
2022-08-29T21:18:26.137Z,97178.59
2022-08-29T21:20:53.817Z,97180.75
2022-08-29T21:23:23.479Z,97182.66
2022-08-29T21:25:56.259Z,97179.63
2022-08-29T21:28:24.895Z,97182.22
2022-08-29T21:30:52.099Z,97171.13
2022-08-29T21:33:19.949Z,97185.03
2022-08-29T21:35:46.622Z,97189.50
2022-08-29T21:38:16.821Z,97186.19
2022-08-29T21:40:51.146Z,97190.75
2022-08-29T21:43:22.172Z,97199.63
2022-08-29T21:45:48.822Z,97199.16
2022-08-29T21:48:15.439Z,97193.94
2022-08-29T21:50:43.266Z,97197.75
2022-08-29T21:53:17.946Z,97196.72
2022-08-29T21:55:44.605Z,97186.50
2022-08-29T21:58:11.344Z,97198.84
2022-08-29T22:00:41.940Z,97193.81
2022-08-29T22:03:12.448Z,97192.41
2022-08-29T22:05:43.664Z,97193.69
2022-08-29T22:08:13.957Z,97201.91
2022-08-29T22:10:41.982Z,97198.00
2022-08-29T22:13:09.049Z,97199.47
2022-08-29T22:15:54.431Z,97202.13
2022-08-29T22:18:21.582Z,97197.66
2022-08-29T22:20:48.750Z,97199.25
2022-08-29T22:23:20.476Z,97204.56
2022-08-29T22:25:47.370Z,97204.34
2022-08-29T22:28:14.162Z,97198.88
2022-08-29T22:30:40.754Z,97196.66
2022-08-29T22:33:08.199Z,97196.00
2022-08-29T22:35:35.735Z,97195.44
2022-08-29T22:38:02.505Z,97190.31
2022-08-29T22:40:29.482Z,97195.19
2022-08-29T22:42:56.606Z,97195.84
2022-08-29T22:45:23.846Z,97200.53
2022-08-29T22:47:50.486Z,97198.47
2022-08-29T22:50:24.007Z,97199.31
2022-08-29T22:52:54.359Z,97202.81
2022-08-29T22:57:48.373Z,97203.00
2022-08-29T23:00:19.584Z,97202.22
2022-08-29T23:02:47.116Z,97201.38
2022-08-29T23:05:15.237Z,97203.78
2022-08-29T23:07:41.944Z,97199.91
2022-08-29T23:10:09.615Z,97200.94
2022-08-29T23:12:36.809Z,97197.69
2022-08-29T23:15:09.373Z,97196.84
2022-08-29T23:17:35.926Z,97198.50
2022-08-29T23:20:03.833Z,97201.78
2022-08-29T23:22:31.647Z,97196.88
2022-08-29T23:24:59.163Z,97193.59
2022-08-29T23:27:29.925Z,97203.78
2022-08-29T23:29:57.634Z,97201.75
2022-08-29T23:32:24.658Z,97202.19
2022-08-29T23:34:51.284Z,97201.19
2022-08-29T23:37:18.181Z,97200.00
2022-08-29T23:39:44.774Z,97194.09
2022-08-29T23:42:11.345Z,97197.97
2022-08-29T23:44:37.954Z,97206.75
2022-08-29T23:47:04.750Z,97202.66
2022-08-29T23:49:31.369Z,97198.97
2022-08-29T23:51:59.208Z,97205.09
2022-08-29T23:54:26.077Z,97198.13
2022-08-29T23:56:53.532Z,97202.66
2022-08-29T23:59:38.598Z,97208.56
